Time;durP1;ratioP1;P1;durP2;ratioP2;P2;SDS_P1;SDS_P2;PMS_P1;PMS_P2;Temp;Humidity;BMP_temperature;BMP_pressure;BME280_temperature;BME280_humidity;BME280_pressure;Samples;Min_cycle;Max_cycle;Signal;HPM_P1;HPM_P2
2021/06/11 00:02:43;;;;;;;31.67;24.25;;;;;;;;;;5035219;28;20041;-62
2021/06/11 00:05:29;;;;;;;35.75;27.50;;;;;;;;;;5015547;28;20046;-62
2021/06/11 00:08:14;;;;;;;39.15;30.85;;;;;;;;;;5015420;28;20053;-62
2021/06/11 00:10:59;;;;;;;31.77;26.35;;;;;;;;;;5025028;28;20046;-63
2021/06/11 00:13:45;;;;;;;46.42;33.47;;;;;;;;;;5033203;28;20052;-62
2021/06/11 00:16:30;;;;;;;33.97;25.17;;;;;;;;;;5033896;28;20059;-63
2021/06/11 00:19:16;;;;;;;35.60;26.73;;;;;;;;;;5035188;28;20435;-63
2021/06/11 00:22:01;;;;;;;42.75;29.35;;;;;;;;;;5033935;28;20049;-63
2021/06/11 00:24:47;;;;;;;59.33;37.88;;;;;;;;;;5034777;28;20121;-63
2021/06/11 00:27:32;;;;;;;58.28;38.38;;;;;;;;;;5034919;28;20057;-62
2021/06/11 00:30:18;;;;;;;56.80;36.63;;;;;;;;;;5034630;28;20045;-62
2021/06/11 00:33:04;;;;;;;62.53;39.13;;;;;;;;;;5015021;28;20045;-62
2021/06/11 00:35:49;;;;;;;55.83;37.90;;;;;;;;;;5034346;28;20046;-62
2021/06/11 00:38:34;;;;;;;64.35;39.47;;;;;;;;;;5034921;28;20048;-62
2021/06/11 00:41:19;;;;;;;51.72;35.08;;;;;;;;;;5033582;28;20503;-62
2021/06/11 00:44:05;;;;;;;36.33;28.52;;;;;;;;;;5034613;28;20087;-62
2021/06/11 00:46:50;;;;;;;36.17;29.17;;;;;;;;;;5034437;28;20053;-62
2021/06/11 00:49:36;;;;;;;59.83;39.83;;;;;;;;;;5034269;28;20060;-62
2021/06/11 00:52:21;;;;;;;50.03;34.42;;;;;;;;;;5033471;28;20041;-63
2021/06/11 00:55:07;;;;;;;45.33;31.98;;;;;;;;;;5034370;28;20172;-63
2021/06/11 00:57:53;;;;;;;49.80;35.72;;;;;;;;;;5034399;28;20195;-63
2021/06/11 01:00:39;;;;;;;36.90;24.65;;;;;;;;;;5033313;28;20046;-63
2021/06/11 01:03:24;;;;;;;31.73;23.10;;;;;;;;;;5033433;28;20045;-63
2021/06/11 01:06:10;;;;;;;26.50;20.25;;;;;;;;;;5033471;28;20045;-63
2021/06/11 01:08:55;;;;;;;33.72;23.98;;;;;;;;;;5019607;28;20046;-63
2021/06/11 01:11:41;;;;;;;40.75;27.02;;;;;;;;;;5018838;28;20041;-63
2021/06/11 01:14:27;;;;;;;27.92;22.17;;;;;;;;;;4999794;28;20050;-63
2021/06/11 01:17:12;;;;;;;37.15;25.73;;;;;;;;;;4999490;28;20060;-63
2021/06/11 01:19:57;;;;;;;30.90;23.38;;;;;;;;;;4999256;28;20384;-63
2021/06/11 01:22:43;;;;;;;27.58;21.58;;;;;;;;;;5003202;28;20056;-63
2021/06/11 01:25:34;;;;;;;36.22;25.80;;;;;;;;;;5033638;28;20056;-63
2021/06/11 01:28:19;;;;;;;34.28;25.77;;;;;;;;;;5033737;28;20411;-63
2021/06/11 01:31:05;;;;;;;41.83;30.00;;;;;;;;;;5018790;28;20065;-63
2021/06/11 01:33:52;;;;;;;44.25;28.48;;;;;;;;;;5017771;28;20095;-63
2021/06/11 01:36:38;;;;;;;36.13;26.65;;;;;;;;;;5032845;28;20451;-63
2021/06/11 01:39:24;;;;;;;32.75;25.63;;;;;;;;;;5018648;28;20073;-63
2021/06/11 01:42:09;;;;;;;38.53;27.48;;;;;;;;;;5033503;28;20053;-63
2021/06/11 01:44:54;;;;;;;40.90;29.88;;;;;;;;;;5032580;28;20056;-63
2021/06/11 01:47:46;;;;;;;45.15;33.72;;;;;;;;;;5019238;28;20122;-63
2021/06/11 01:50:43;;;;;;;56.00;39.38;;;;;;;;;;5033332;28;20053;-63
2021/06/11 01:53:29;;;;;;;60.22;40.10;;;;;;;;;;5003806;28;20049;-63
2021/06/11 01:56:15;;;;;;;68.30;43.70;;;;;;;;;;5031357;28;20495;-63
2021/06/11 01:59:01;;;;;;;77.28;50.20;;;;;;;;;;5033246;28;20064;-63
2021/06/11 02:01:46;;;;;;;77.60;48.13;;;;;;;;;;5018128;28;20045;-63
2021/06/11 02:04:32;;;;;;;59.90;36.05;;;;;;;;;;5017269;28;20463;-63
2021/06/11 02:07:17;;;;;;;47.85;31.85;;;;;;;;;;5018173;28;20380;-62
2021/06/11 02:10:03;;;;;;;47.90;33.78;;;;;;;;;;5032876;28;20053;-63
2021/06/11 02:12:49;;;;;;;47.78;34.60;;;;;;;;;;5033038;28;20046;-64
2021/06/11 02:15:34;;;;;;;50.53;35.45;;;;;;;;;;5030514;28;20057;-63
2021/06/11 02:18:19;;;;;;;49.58;34.50;;;;;;;;;;5017587;28;20495;-61
2021/06/11 02:21:08;;;;;;;50.80;36.83;;;;;;;;;;5031772;28;20153;-62
2021/06/11 02:23:53;;;;;;;51.15;34.80;;;;;;;;;;5032539;28;20084;-63
2021/06/11 02:26:39;;;;;;;53.80;35.70;;;;;;;;;;5030284;28;20053;-63
2021/06/11 02:29:24;;;;;;;43.72;30.25;;;;;;;;;;5032467;28;20046;-62
2021/06/11 02:32:10;;;;;;;41.30;29.83;;;;;;;;;;5032562;28;20045;-63
2021/06/11 02:34:55;;;;;;;38.58;27.77;;;;;;;;;;5030940;28;20132;-63
2021/06/11 02:37:40;;;;;;;36.22;27.40;;;;;;;;;;5032621;28;20056;-63
2021/06/11 02:40:25;;;;;;;43.13;31.80;;;;;;;;;;5032089;28;20128;-63
2021/06/11 02:43:11;;;;;;;39.70;30.20;;;;;;;;;;5031532;28;20144;-63
2021/06/11 02:45:58;;;;;;;47.83;33.95;;;;;;;;;;5016534;28;20134;-62
2021/06/11 02:48:49;;;;;;;43.42;30.77;;;;;;;;;;5032479;28;20076;-62
2021/06/11 02:51:38;;;;;;;41.80;30.42;;;;;;;;;;5032296;28;20104;-62
2021/06/11 02:54:28;;;;;;;47.80;31.20;;;;;;;;;;5016305;28;20124;-62
2021/06/11 02:57:21;;;;;;;48.05;34.40;;;;;;;;;;5017294;28;20060;-62
2021/06/11 03:00:08;;;;;;;55.65;36.55;;;;;;;;;;5017265;28;20046;-62
2021/06/11 03:02:55;;;;;;;55.53;33.65;;;;;;;;;;5032294;28;20052;-62
2021/06/11 03:05:40;;;;;;;55.78;36.08;;;;;;;;;;5016973;28;20045;-62
2021/06/11 03:08:26;;;;;;;69.60;40.67;;;;;;;;;;5031121;28;20046;-62
2021/06/11 03:11:16;;;;;;;67.30;40.95;;;;;;;;;;5030953;28;20050;-62
2021/06/11 03:14:01;;;;;;;74.78;41.38;;;;;;;;;;5032268;28;20427;-62
2021/06/11 03:16:47;;;;;;;74.95;40.60;;;;;;;;;;5030963;28;20049;-62
2021/06/11 03:19:34;;;;;;;54.95;36.65;;;;;;;;;;5031777;28;20045;-62
2021/06/11 03:22:20;;;;;;;93.25;49.15;;;;;;;;;;5030771;28;20073;-62
2021/06/11 03:25:07;;;;;;;60.53;38.65;;;;;;;;;;5030796;28;20419;-62
2021/06/11 03:27:57;;;;;;;74.50;42.72;;;;;;;;;;5033111;28;20049;-62
2021/06/11 03:30:45;;;;;;;74.28;44.65;;;;;;;;;;5036098;28;20064;-62
2021/06/11 03:33:36;;;;;;;70.68;44.65;;;;;;;;;;5021227;28;20152;-62
2021/06/11 03:36:42;;;;;;;63.55;42.45;;;;;;;;;;5012237;28;20054;-62
2021/06/11 03:39:46;;;;;;;142.25;49.15;;;;;;;;;;5016057;28;20053;-62
2021/06/11 03:42:33;;;;;;;112.97;42.42;;;;;;;;;;5001804;28;20129;-62
2021/06/11 03:45:21;;;;;;;78.65;35.80;;;;;;;;;;5016119;28;20054;-62
2021/06/11 03:48:06;;;;;;;54.50;32.67;;;;;;;;;;5002222;28;20405;-61
2021/06/11 03:50:52;;;;;;;43.80;30.35;;;;;;;;;;5016777;28;20396;-63
2021/06/11 03:53:38;;;;;;;42.40;29.38;;;;;;;;;;5016246;28;20069;-62
2021/06/11 03:56:23;;;;;;;50.95;29.33;;;;;;;;;;5007022;28;20049;-62
2021/06/11 03:59:11;;;;;;;73.43;31.63;;;;;;;;;;5035609;28;20511;-62
2021/06/11 04:01:57;;;;;;;47.30;30.70;;;;;;;;;;5035504;28;20556;-63
2021/06/11 04:04:43;;;;;;;35.97;27.75;;;;;;;;;;5034352;28;20060;-63
2021/06/11 04:07:41;;;;;;;50.08;33.35;;;;;;;;;;5033271;28;20052;-63
2021/06/11 04:10:29;;;;;;;38.35;28.73;;;;;;;;;;5020374;28;20136;-62
2021/06/11 04:13:19;;;;;;;39.97;31.60;;;;;;;;;;5035252;28;20045;-62
2021/06/11 04:16:05;;;;;;;52.13;34.53;;;;;;;;;;5020067;28;20503;-63
2021/06/11 04:18:51;;;;;;;46.25;32.97;;;;;;;;;;5006936;28;20077;-62
2021/06/11 04:21:36;;;;;;;36.20;29.00;;;;;;;;;;5035034;28;20056;-62
2021/06/11 04:24:23;;;;;;;39.95;30.30;;;;;;;;;;5034965;28;20136;-63
2021/06/11 04:27:08;;;;;;;49.63;34.05;;;;;;;;;;5019483;28;20044;-63
2021/06/11 04:29:57;;;;;;;61.72;39.33;;;;;;;;;;5033933;28;20046;-62
2021/06/11 04:32:43;;;;;;;67.60;42.72;;;;;;;;;;5034859;28;20128;-62
2021/06/11 04:35:35;;;;;;;66.30;43.50;;;;;;;;;;5035042;28;20203;-62
2021/06/11 04:38:20;;;;;;;54.05;38.20;;;;;;;;;;5033013;28;20573;-62
2021/06/11 04:41:10;;;;;;;55.88;40.08;;;;;;;;;;5033902;28;20049;-62
2021/06/11 04:43:59;;;;;;;62.55;42.97;;;;;;;;;;5034882;28;20053;-62
2021/06/11 04:46:51;;;;;;;59.65;40.63;;;;;;;;;;5032688;28;20053;-63
2021/06/11 04:49:37;;;;;;;49.97;39.60;;;;;;;;;;5034400;28;20077;-63
2021/06/11 04:52:22;;;;;;;50.38;39.47;;;;;;;;;;5034250;28;20045;-63
2021/06/11 04:55:08;;;;;;;51.25;37.80;;;;;;;;;;5033921;28;20053;-62
2021/06/11 04:57:54;;;;;;;50.22;37.40;;;;;;;;;;5014564;28;20060;-62
2021/06/11 05:00:39;;;;;;;49.70;38.25;;;;;;;;;;5017885;28;20045;-62
2021/06/11 05:03:25;;;;;;;46.08;35.17;;;;;;;;;;5030687;28;20042;-62
2021/06/11 05:06:11;;;;;;;42.45;34.42;;;;;;;;;;5030972;28;20041;-62
2021/06/11 05:08:56;;;;;;;44.35;31.95;;;;;;;;;;5032032;28;20406;-62
2021/06/11 05:11:44;;;;;;;40.55;32.15;;;;;;;;;;5032808;28;20053;-62
2021/06/11 05:14:29;;;;;;;45.15;36.25;;;;;;;;;;5032266;28;20038;-62
2021/06/11 05:17:15;;;;;;;42.63;33.63;;;;;;;;;;5031951;28;20045;-63
2021/06/11 05:20:00;;;;;;;46.40;36.45;;;;;;;;;;5032185;28;20131;-63
2021/06/11 05:22:46;;;;;;;51.25;37.72;;;;;;;;;;5033717;28;20107;-62
2021/06/11 05:25:32;;;;;;;55.85;40.28;;;;;;;;;;5032111;28;20076;-62
2021/06/11 05:28:19;;;;;;;60.50;42.55;;;;;;;;;;5033875;28;20046;-63
2021/06/11 05:31:04;;;;;;;64.85;47.85;;;;;;;;;;5033419;28;20049;-63
2021/06/11 05:33:50;;;;;;;67.10;48.47;;;;;;;;;;5033864;28;20060;-63
2021/06/11 05:36:37;;;;;;;68.07;48.38;;;;;;;;;;5014031;28;20133;-63
2021/06/11 05:39:22;;;;;;;64.97;46.55;;;;;;;;;;5013646;28;20068;-63
2021/06/11 05:42:09;;;;;;;56.13;42.13;;;;;;;;;;5013974;28;20054;-63
2021/06/11 05:44:56;;;;;;;58.30;43.75;;;;;;;;;;5016509;28;20084;-63
2021/06/11 05:47:43;;;;;;;64.20;46.55;;;;;;;;;;5013682;28;20443;-63
2021/06/11 05:50:29;;;;;;;55.95;45.88;;;;;;;;;;5017227;28;20136;-63
2021/06/11 05:53:15;;;;;;;61.95;45.80;;;;;;;;;;5033429;28;20054;-63
2021/06/11 05:56:01;;;;;;;60.80;46.67;;;;;;;;;;5032219;28;20053;-63
2021/06/11 05:58:47;;;;;;;57.70;45.25;;;;;;;;;;5033643;28;20049;-63
2021/06/11 06:01:34;;;;;;;63.92;46.30;;;;;;;;;;5033006;28;20108;-63
2021/06/11 06:04:19;;;;;;;51.03;39.38;;;;;;;;;;5033213;28;20503;-63
2021/06/11 06:07:06;;;;;;;43.13;34.25;;;;;;;;;;5017390;28;20133;-62
2021/06/11 06:09:52;;;;;;;43.53;34.40;;;;;;;;;;5013283;28;20046;-62
2021/06/11 06:12:37;;;;;;;41.85;31.70;;;;;;;;;;5013295;28;20048;-62
2021/06/11 06:15:22;;;;;;;37.45;29.92;;;;;;;;;;5013216;28;20120;-62
2021/06/11 06:18:08;;;;;;;33.58;27.42;;;;;;;;;;5013249;28;20411;-62
2021/06/11 06:20:54;;;;;;;28.60;24.13;;;;;;;;;;5013140;28;20070;-62
2021/06/11 06:23:40;;;;;;;28.70;22.83;;;;;;;;;;5013547;28;20053;-62
2021/06/11 06:26:33;;;;;;;27.83;23.35;;;;;;;;;;5017444;28;20199;-62
2021/06/11 06:29:20;;;;;;;25.05;21.50;;;;;;;;;;5032549;28;20136;-63
2021/06/11 06:32:05;;;;;;;20.08;17.35;;;;;;;;;;5032885;28;20056;-62
2021/06/11 06:34:50;;;;;;;20.55;17.02;;;;;;;;;;5030070;28;20053;-62
2021/06/11 06:37:37;;;;;;;20.48;17.40;;;;;;;;;;5028097;28;20042;-61
2021/06/11 06:40:22;;;;;;;21.60;19.25;;;;;;;;;;5002985;28;20069;-63
2021/06/11 06:43:08;;;;;;;20.95;18.30;;;;;;;;;;5032000;28;20056;-63
2021/06/11 06:45:53;;;;;;;23.48;19.13;;;;;;;;;;5031690;28;20054;-62
2021/06/11 06:48:40;;;;;;;19.95;17.75;;;;;;;;;;5030429;28;20069;-63
2021/06/11 06:51:26;;;;;;;19.45;17.38;;;;;;;;;;5031154;28;20072;-63
2021/06/11 06:54:12;;;;;;;22.17;18.95;;;;;;;;;;5001490;28;20037;-63
2021/06/11 06:56:57;;;;;;;21.38;18.50;;;;;;;;;;5031127;28;20050;-63
2021/06/11 06:59:43;;;;;;;22.20;18.17;;;;;;;;;;5034104;28;20054;-63
2021/06/11 07:02:29;;;;;;;19.77;16.88;;;;;;;;;;5035314;28;20043;-63
2021/06/11 07:05:15;;;;;;;20.45;17.23;;;;;;;;;;5034653;28;20058;-63
2021/06/11 07:08:11;;;;;;;21.15;17.65;;;;;;;;;;5029428;28;20038;-62
2021/06/11 07:10:58;;;;;;;21.88;17.58;;;;;;;;;;5030357;28;20041;-62
2021/06/11 07:13:43;;;;;;;18.80;16.83;;;;;;;;;;5029093;28;20065;-62
2021/06/11 07:16:28;;;;;;;19.90;17.65;;;;;;;;;;5029074;28;20580;-62
2021/06/11 07:19:23;;;;;;;19.48;17.48;;;;;;;;;;5026907;28;20152;-62
2021/06/11 07:22:10;;;;;;;22.05;18.10;;;;;;;;;;5031321;28;20053;-63
2021/06/11 07:24:56;;;;;;;19.80;17.08;;;;;;;;;;5031173;28;20124;-62
2021/06/11 07:27:41;;;;;;;21.35;17.55;;;;;;;;;;5031249;28;20046;-62
2021/06/11 07:30:29;;;;;;;24.77;19.95;;;;;;;;;;5030728;28;20115;-62
2021/06/11 07:33:15;;;;;;;21.85;18.42;;;;;;;;;;5031638;28;20119;-63
2021/06/11 07:36:02;;;;;;;23.63;18.85;;;;;;;;;;5013103;28;20080;-62
2021/06/11 07:38:51;;;;;;;22.63;19.30;;;;;;;;;;5032580;28;20379;-63
2021/06/11 07:41:37;;;;;;;24.15;18.67;;;;;;;;;;5037474;28;20551;-63
2021/06/11 07:44:23;;;;;;;20.48;17.63;;;;;;;;;;5023736;28;20120;-62
2021/06/11 07:47:11;;;;;;;20.75;18.35;;;;;;;;;;5036602;28;20117;-63
2021/06/11 07:50:14;;;;;;;20.23;18.02;;;;;;;;;;5012978;28;20499;-63
2021/06/11 07:52:59;;;;;;;21.00;18.00;;;;;;;;;;5033125;28;20046;-63
2021/06/11 07:55:46;;;;;;;25.88;19.42;;;;;;;;;;5034095;28;20423;-63
2021/06/11 07:58:31;;;;;;;22.92;17.95;;;;;;;;;;5035384;28;20049;-63
2021/06/11 08:01:18;;;;;;;22.25;19.75;;;;;;;;;;5036489;28;20042;-62
2021/06/11 08:04:04;;;;;;;20.63;16.20;;;;;;;;;;5034709;28;20499;-62
2021/06/11 08:06:51;;;;;;;18.77;16.27;;;;;;;;;;5030623;28;20053;-63
2021/06/11 08:09:37;;;;;;;19.08;16.15;;;;;;;;;;5029538;28;20072;-62
2021/06/11 08:12:23;;;;;;;19.45;17.00;;;;;;;;;;5031542;28;20112;-63
2021/06/11 08:15:09;;;;;;;20.63;15.82;;;;;;;;;;5034503;28;20076;-63
2021/06/11 08:17:59;;;;;;;18.75;16.60;;;;;;;;;;5035110;28;20567;-62
2021/06/11 08:20:45;;;;;;;18.83;16.92;;;;;;;;;;5034289;28;20515;-62
2021/06/11 08:23:32;;;;;;;17.52;15.43;;;;;;;;;;5035876;28;20049;-63
2021/06/11 08:26:37;;;;;;;20.50;16.98;;;;;;;;;;5020484;28;20053;-65
2021/06/11 08:29:35;;;;;;;18.88;16.00;;;;;;;;;;5034973;28;20839;-65
2021/06/11 08:32:20;;;;;;;18.77;16.20;;;;;;;;;;5034694;28;20133;-64
2021/06/11 08:35:06;;;;;;;18.13;14.50;;;;;;;;;;5035618;28;20045;-63
2021/06/11 08:37:52;;;;;;;15.65;14.05;;;;;;;;;;5035664;28;20060;-63
2021/06/11 08:40:39;;;;;;;17.27;14.75;;;;;;;;;;5033882;28;20068;-64
2021/06/11 08:43:25;;;;;;;17.92;15.27;;;;;;;;;;5035672;28;20045;-63
2021/06/11 08:46:10;;;;;;;14.85;13.35;;;;;;;;;;5035299;28;20396;-63
2021/06/11 08:48:58;;;;;;;17.05;12.60;;;;;;;;;;5035150;28;20041;-63
2021/06/11 08:51:46;;;;;;;13.65;12.35;;;;;;;;;;5034288;28;20052;-63
2021/06/11 08:54:31;;;;;;;13.38;11.85;;;;;;;;;;5035102;28;20056;-63
2021/06/11 08:57:17;;;;;;;13.75;11.57;;;;;;;;;;5034760;28;20049;-63
2021/06/11 09:00:04;;;;;;;13.18;11.07;;;;;;;;;;5035188;28;20061;-63
2021/06/11 09:03:14;;;;;;;13.07;11.82;;;;;;;;;;5021052;28;20052;-63
2021/06/11 09:06:00;;;;;;;13.85;11.32;;;;;;;;;;5034737;28;20049;-64
2021/06/11 09:08:55;;;;;;;11.95;10.68;;;;;;;;;;5036267;28;20057;-64
2021/06/11 09:12:00;;;;;;;12.35;11.15;;;;;;;;;;5018282;28;20107;-63
2021/06/11 09:14:59;;;;;;;10.88;9.75;;;;;;;;;;5033053;28;20052;-62
2021/06/11 09:17:48;;;;;;;15.30;8.13;;;;;;;;;;5034086;28;20056;-64
2021/06/11 09:20:41;;;;;;;11.55;8.88;;;;;;;;;;5036227;28;20510;-64
2021/06/11 09:23:27;;;;;;;11.77;10.50;;;;;;;;;;5034123;28;20060;-63
2021/06/11 09:26:13;;;;;;;11.32;10.10;;;;;;;;;;5034409;28;20053;-64
2021/06/11 09:29:19;;;;;;;12.63;9.98;;;;;;;;;;5008582;28;20087;-64
2021/06/11 09:32:28;;;;;;;10.93;9.93;;;;;;;;;;5018186;28;20041;-63
2021/06/11 09:35:14;;;;;;;12.18;10.90;;;;;;;;;;5033908;28;20207;-63
2021/06/11 09:38:08;;;;;;;12.93;11.60;;;;;;;;;;5032975;28;20060;-63
2021/06/11 09:41:00;;;;;;;14.20;12.20;;;;;;;;;;5033426;28;20503;-63
2021/06/11 09:43:55;;;;;;;11.38;10.18;;;;;;;;;;5032411;28;20064;-63
2021/06/11 09:46:47;;;;;;;12.02;10.80;;;;;;;;;;5033577;28;20050;-62
2021/06/11 09:49:45;;;;;;;12.43;11.10;;;;;;;;;;5033144;28;20042;-62
2021/06/11 09:52:35;;;;;;;13.73;12.02;;;;;;;;;;5033508;28;20292;-62
2021/06/11 09:55:27;;;;;;;13.30;11.90;;;;;;;;;;5030399;28;20492;-65
2021/06/11 09:58:16;;;;;;;14.35;12.77;;;;;;;;;;5033362;28;20103;-65
2021/06/11 10:01:10;;;;;;;15.32;13.52;;;;;;;;;;5032899;28;20107;-65
2021/06/11 10:03:57;;;;;;;13.90;12.25;;;;;;;;;;5032869;28;20056;-65
2021/06/11 10:06:42;;;;;;;13.32;11.93;;;;;;;;;;5033144;28;20056;-64
2021/06/11 10:09:28;;;;;;;12.18;10.15;;;;;;;;;;5032771;28;20050;-64
2021/06/11 10:12:13;;;;;;;13.10;10.98;;;;;;;;;;5017214;28;20045;-64
2021/06/11 10:14:59;;;;;;;14.18;12.20;;;;;;;;;;5016771;28;20088;-64
2021/06/11 10:17:44;;;;;;;16.35;10.98;;;;;;;;;;5032931;28;20474;-64
2021/06/11 10:20:30;;;;;;;11.27;10.00;;;;;;;;;;5032585;28;20570;-65
2021/06/11 10:23:16;;;;;;;12.77;11.05;;;;;;;;;;5031706;28;20045;-62
2021/06/11 10:26:02;;;;;;;10.40;9.13;;;;;;;;;;5032771;28;20450;-63
2021/06/11 10:28:48;;;;;;;8.77;7.28;;;;;;;;;;5032793;28;20052;-63
2021/06/11 10:31:36;;;;;;;10.82;9.32;;;;;;;;;;5032600;28;20046;-63
2021/06/11 10:34:21;;;;;;;16.15;11.75;;;;;;;;;;5031913;28;20042;-63
2021/06/11 10:37:07;;;;;;;16.75;14.00;;;;;;;;;;5018415;28;20053;-64
2021/06/11 10:39:53;;;;;;;16.98;14.63;;;;;;;;;;5018113;28;20508;-62
2021/06/11 10:42:38;;;;;;;19.65;16.65;;;;;;;;;;5033636;28;20136;-63
2021/06/11 10:45:42;;;;;;;18.95;15.35;;;;;;;;;;5033981;28;20135;-64
2021/06/11 10:48:47;;;;;;;16.63;15.00;;;;;;;;;;5033347;28;20091;-63
2021/06/11 10:51:45;;;;;;;15.93;14.23;;;;;;;;;;5034882;28;20100;-63
2021/06/11 10:54:31;;;;;;;11.85;10.65;;;;;;;;;;5034181;28;20075;-63
2021/06/11 10:57:16;;;;;;;9.43;8.05;;;;;;;;;;5035614;28;20060;-64
2021/06/11 11:00:23;;;;;;;11.77;9.90;;;;;;;;;;5033373;28;20077;-63
2021/06/11 11:03:08;;;;;;;17.13;11.55;;;;;;;;;;5015129;28;20053;-64
2021/06/11 11:06:21;;;;;;;12.40;10.60;;;;;;;;;;5014045;28;20050;-64
2021/06/11 11:09:06;;;;;;;10.07;9.18;;;;;;;;;;5012689;28;20046;-64
2021/06/11 11:11:59;;;;;;;10.32;9.10;;;;;;;;;;5025485;28;20050;-63
2021/06/11 11:14:44;;;;;;;11.13;9.48;;;;;;;;;;5031892;28;20045;-63
2021/06/11 11:17:30;;;;;;;10.23;8.73;;;;;;;;;;5101653;22;20075;-65
2021/06/11 11:20:16;;;;;;;9.40;8.30;;;;;;;;;;5071661;28;20561;-66
2021/06/11 11:23:02;;;;;;;8.88;6.35;;;;;;;;;;5054772;28;20083;-65
2021/06/11 11:25:47;;;;;;;6.28;5.35;;;;;;;;;;5071999;28;20052;-66
2021/06/11 11:28:33;;;;;;;6.53;5.88;;;;;;;;;;5071883;28;20049;-65
2021/06/11 11:31:18;;;;;;;9.52;8.52;;;;;;;;;;5071537;28;20440;-65
2021/06/11 11:34:04;;;;;;;7.72;6.93;;;;;;;;;;5070119;28;20048;-65
2021/06/11 11:36:49;;;;;;;9.90;7.97;;;;;;;;;;5071682;28;20055;-67
2021/06/11 11:39:35;;;;;;;7.55;6.70;;;;;;;;;;5056363;28;20524;-66
2021/06/11 11:42:20;;;;;;;16.42;10.90;;;;;;;;;;5071896;28;20052;-65
2021/06/11 11:45:06;;;;;;;11.40;9.98;;;;;;;;;;5069233;28;20178;-66
2021/06/11 11:47:56;;;;;;;10.20;9.00;;;;;;;;;;5069045;28;20047;-66
2021/06/11 11:50:42;;;;;;;8.93;7.80;;;;;;;;;;5074009;28;20068;-66
2021/06/11 11:53:29;;;;;;;8.55;7.32;;;;;;;;;;5073810;28;20616;-66
2021/06/11 11:56:14;;;;;;;8.90;8.00;;;;;;;;;;5075121;28;20078;-66
2021/06/11 11:59:06;;;;;;;9.43;7.85;;;;;;;;;;5075563;28;20280;-66
2021/06/11 12:01:51;;;;;;;10.82;9.73;;;;;;;;;;5075554;28;20052;-66
2021/06/11 12:04:36;;;;;;;16.98;11.63;;;;;;;;;;5074059;28;20056;-66
2021/06/11 12:07:22;;;;;;;14.65;12.35;;;;;;;;;;5075191;28;20044;-64
2021/06/11 12:10:08;;;;;;;14.73;11.88;;;;;;;;;;5075024;28;20080;-62
2021/06/11 12:12:53;;;;;;;15.20;12.05;;;;;;;;;;5075149;28;20090;-63
2021/06/11 12:15:42;;;;;;;14.52;11.88;;;;;;;;;;5071019;28;20446;-64
2021/06/11 12:18:27;;;;;;;12.68;11.38;;;;;;;;;;5072782;28;20044;-63
2021/06/11 12:21:15;;;;;;;13.80;11.93;;;;;;;;;;5074821;28;20074;-63
2021/06/11 12:24:00;;;;;;;13.82;12.38;;;;;;;;;;5075119;28;20127;-63
2021/06/11 12:26:45;;;;;;;16.45;14.07;;;;;;;;;;5063878;28;20051;-63
2021/06/11 12:29:32;;;;;;;13.85;12.50;;;;;;;;;;5072248;28;20424;-65
2021/06/11 12:32:17;;;;;;;10.57;9.40;;;;;;;;;;5072019;28;20051;-63
2021/06/11 12:35:03;;;;;;;11.63;10.43;;;;;;;;;;5071933;28;20064;-63
2021/06/11 12:37:53;;;;;;;7.85;7.15;;;;;;;;;;5073467;28;20509;-63
2021/06/11 12:40:39;;;;;;;8.98;8.18;;;;;;;;;;5074246;28;20058;-63
2021/06/11 12:46:29;;;;;;;8.35;7.65;;;;;;;;;;5072973;28;20396;-63
2021/06/11 12:49:15;;;;;;;11.30;10.30;;;;;;;;;;5074453;28;20036;-62
2021/06/11 12:52:05;;;;;;;11.95;10.85;;;;;;;;;;5059876;28;20071;-63
2021/06/11 12:54:51;;;;;;;9.77;8.98;;;;;;;;;;5074228;28;20070;-63
2021/06/11 12:57:41;;;;;;;12.18;11.18;;;;;;;;;;5071079;28;20049;-63
2021/06/11 13:00:26;;;;;;;12.15;11.05;;;;;;;;;;5069686;28;20047;-63
2021/06/11 13:03:12;;;;;;;12.18;11.05;;;;;;;;;;5073356;28;20048;-63
2021/06/11 13:05:57;;;;;;;11.85;10.85;;;;;;;;;;5072339;28;20144;-63
2021/06/11 13:08:43;;;;;;;13.30;12.10;;;;;;;;;;5072735;28;20055;-62
2021/06/11 13:11:28;;;;;;;11.93;10.82;;;;;;;;;;5072685;28;20494;-63
2021/06/11 13:14:13;;;;;;;11.73;10.73;;;;;;;;;;5073282;28;20048;-63
2021/06/11 13:16:59;;;;;;;10.30;9.35;;;;;;;;;;5072150;28;20617;-63
2021/06/11 13:19:45;;;;;;;9.45;8.20;;;;;;;;;;5072744;28;20127;-63
2021/06/11 13:22:37;;;;;;;9.38;8.48;;;;;;;;;;5071220;28;20413;-63
2021/06/11 13:25:22;;;;;;;10.05;7.63;;;;;;;;;;5055514;28;20126;-63
2021/06/11 13:28:07;;;;;;;8.20;7.50;;;;;;;;;;5071436;28;20052;-62
2021/06/11 13:30:53;;;;;;;9.43;8.57;;;;;;;;;;5069737;28;20056;-63
2021/06/11 13:33:45;;;;;;;11.70;10.60;;;;;;;;;;5071809;28;20398;-62
2021/06/11 13:36:30;;;;;;;12.27;11.15;;;;;;;;;;5072370;28;20041;-63
2021/06/11 13:39:16;;;;;;;9.95;8.98;;;;;;;;;;5072429;28;20048;-63
2021/06/11 13:42:01;;;;;;;12.13;9.65;;;;;;;;;;5071133;28;20075;-63
2021/06/11 13:44:46;;;;;;;8.80;7.85;;;;;;;;;;5072149;28;20048;-62
2021/06/11 13:47:35;;;;;;;6.53;5.95;;;;;;;;;;5071861;28;20132;-63
2021/06/11 13:50:21;;;;;;;8.07;7.28;;;;;;;;;;5068859;28;20044;-64
2021/06/11 13:53:06;;;;;;;9.50;7.70;;;;;;;;;;5070765;28;20036;-64
2021/06/11 13:55:52;;;;;;;4.03;3.72;;;;;;;;;;5071494;28;20089;-63
2021/06/11 13:58:37;;;;;;;5.13;4.53;;;;;;;;;;5070081;28;20044;-63
2021/06/11 14:01:29;;;;;;;7.00;5.68;;;;;;;;;;5069257;28;20049;-63
2021/06/11 14:04:14;;;;;;;6.97;6.30;;;;;;;;;;5059432;28;20498;-63
2021/06/11 14:07:00;;;;;;;6.82;6.10;;;;;;;;;;5049213;28;20090;-63
2021/06/11 14:09:45;;;;;;;7.05;6.25;;;;;;;;;;5069053;28;20414;-63
2021/06/11 14:12:32;;;;;;;6.82;6.13;;;;;;;;;;5070658;28;20119;-64
2021/06/11 14:15:17;;;;;;;6.65;6.05;;;;;;;;;;5067934;28;20045;-63
2021/06/11 14:18:04;;;;;;;9.07;8.18;;;;;;;;;;5064088;28;20053;-65
2021/06/11 14:20:49;;;;;;;9.77;7.72;;;;;;;;;;5057757;28;20044;-64
2021/06/11 14:23:35;;;;;;;8.48;6.53;;;;;;;;;;5069913;28;20055;-63
2021/06/11 14:26:20;;;;;;;6.55;5.95;;;;;;;;;;5054946;28;20072;-64
2021/06/11 14:29:05;;;;;;;5.03;4.30;;;;;;;;;;5068410;28;20478;-64
2021/06/11 14:31:51;;;;;;;9.05;6.68;;;;;;;;;;5070651;28;20090;-63
2021/06/11 14:34:37;;;;;;;7.50;6.63;;;;;;;;;;5070458;28;20056;-63
2021/06/11 14:37:24;;;;;;;8.43;7.63;;;;;;;;;;5070103;28;20186;-64
2021/06/11 14:40:09;;;;;;;9.25;8.55;;;;;;;;;;5066828;28;20048;-64
2021/06/11 14:42:57;;;;;;;8.95;7.00;;;;;;;;;;5070371;28;20121;-64
2021/06/11 14:45:42;;;;;;;8.27;7.50;;;;;;;;;;5068667;28;20052;-63
2021/06/11 14:48:27;;;;;;;6.85;6.15;;;;;;;;;;5069850;28;20052;-63
2021/06/11 14:51:14;;;;;;;6.55;5.88;;;;;;;;;;5069208;28;20053;-63
2021/06/11 14:54:01;;;;;;;7.32;6.63;;;;;;;;;;5051683;28;20353;-64
2021/06/11 14:56:48;;;;;;;7.07;6.38;;;;;;;;;;5068109;28;21046;-63
2021/06/11 14:59:32;;;;;;;6.85;6.25;;;;;;;;;;5068689;28;20446;-64
2021/06/11 15:02:18;;;;;;;7.70;6.95;;;;;;;;;;5068760;28;20670;-64
2021/06/11 15:05:04;;;;;;;7.70;7.10;;;;;;;;;;5066139;28;20139;-64
2021/06/11 15:07:50;;;;;;;7.70;6.57;;;;;;;;;;5062779;28;20051;-63
2021/06/11 15:10:40;;;;;;;6.78;6.28;;;;;;;;;;5069195;28;20057;-64
2021/06/11 15:13:38;;;;;;;7.78;6.97;;;;;;;;;;5069217;28;20067;-64
2021/06/11 15:16:23;;;;;;;6.93;6.25;;;;;;;;;;5067757;28;20477;-63
2021/06/11 15:19:10;;;;;;;5.78;5.07;;;;;;;;;;5067848;28;20052;-64
2021/06/11 15:21:59;;;;;;;6.60;4.82;;;;;;;;;;5066089;28;20037;-64
2021/06/11 15:24:45;;;;;;;5.15;4.50;;;;;;;;;;5067455;28;20049;-63
2021/06/11 15:27:30;;;;;;;5.55;5.05;;;;;;;;;;5068473;28;20178;-63
2021/06/11 15:30:16;;;;;;;4.18;3.50;;;;;;;;;;5067427;28;20509;-63
2021/06/11 15:33:01;;;;;;;3.20;2.55;;;;;;;;;;5069039;28;20048;-63
2021/06/11 15:35:47;;;;;;;3.42;1.92;;;;;;;;;;5069739;28;20406;-64
2021/06/11 15:38:32;;;;;;;6.40;1.83;;;;;;;;;;5068250;28;20045;-63
2021/06/11 15:41:18;;;;;;;2.60;2.25;;;;;;;;;;5067782;28;20045;-63
2021/06/11 15:44:03;;;;;;;3.45;2.03;;;;;;;;;;5068872;28;20131;-63
2021/06/11 15:46:49;;;;;;;2.33;1.88;;;;;;;;;;5069691;28;20162;-63
2021/06/11 15:49:34;;;;;;;4.90;3.60;;;;;;;;;;5067250;28;20477;-63
2021/06/11 15:52:19;;;;;;;4.18;3.30;;;;;;;;;;5067194;28;20713;-63
2021/06/11 15:55:05;;;;;;;7.47;3.70;;;;;;;;;;5068919;28;20067;-63
2021/06/11 15:57:50;;;;;;;5.65;3.45;;;;;;;;;;5054479;28;20048;-63
2021/06/11 16:00:35;;;;;;;6.65;5.47;;;;;;;;;;5048724;28;20898;-63
2021/06/11 16:03:21;;;;;;;7.75;5.72;;;;;;;;;;5048947;28;20055;-62
2021/06/11 16:06:07;;;;;;;10.02;9.13;;;;;;;;;;5050133;28;20114;-63
2021/06/11 16:08:52;;;;;;;11.48;10.18;;;;;;;;;;5059025;28;20052;-62
2021/06/11 16:11:37;;;;;;;12.48;11.23;;;;;;;;;;5065911;28;20413;-63
2021/06/11 16:14:23;;;;;;;8.95;8.10;;;;;;;;;;5066835;28;20122;-64
2021/06/11 16:17:08;;;;;;;7.13;6.45;;;;;;;;;;5067046;28;20040;-63
2021/06/11 16:19:54;;;;;;;8.15;7.45;;;;;;;;;;5066678;28;20441;-64
2021/06/11 16:22:39;;;;;;;11.93;10.82;;;;;;;;;;5067707;28;20046;-64
2021/06/11 16:25:25;;;;;;;11.70;10.65;;;;;;;;;;5068701;28;20449;-64